Time;durP1;ratioP1;P1;durP2;ratioP2;P2;SDS_P1;SDS_P2;PMS_P1;PMS_P2;Temp;Humidity;BMP_temperature;BMP_pressure;BME280_temperature;BME280_humidity;BME280_pressure;Samples;Min_cycle;Max_cycle;Signal;HPM_P1;HPM_P2
2021/12/15 00:01:32;;;;;;;37.30;22.02;;;11.30;99.90;;;;;;4936145;29;20039;-63
2021/12/15 00:03:58;;;;;;;42.50;23.98;;;11.30;99.90;;;;;;4937366;29;20023;-63
2021/12/15 00:06:24;;;;;;;41.47;21.90;;;11.30;99.90;;;;;;4951565;29;20102;-63
2021/12/15 00:08:53;;;;;;;46.53;24.27;;;11.30;99.90;;;;;;4936480;29;20456;-63
2021/12/15 00:11:21;;;;;;;43.63;23.48;;;11.30;99.90;;;;;;4932735;29;20032;-63
2021/12/15 00:13:48;;;;;;;38.85;22.10;;;11.30;99.90;;;;;;4935151;29;20042;-63
2021/12/15 00:16:15;;;;;;;46.95;23.80;;;11.30;99.90;;;;;;4936659;29;20387;-63
2021/12/15 00:18:44;;;;;;;41.67;22.10;;;11.20;99.90;;;;;;4933426;29;20038;-63
2021/12/15 00:21:12;;;;;;;41.50;23.10;;;11.30;99.90;;;;;;4936790;29;20110;-63
2021/12/15 00:23:39;;;;;;;46.88;25.60;;;11.30;99.90;;;;;;4935917;29;20046;-63
2021/12/15 00:26:05;;;;;;;44.65;24.10;;;11.30;99.90;;;;;;4936432;29;20035;-63
2021/12/15 00:28:31;;;;;;;42.60;24.05;;;11.20;99.90;;;;;;4935355;29;20040;-63
2021/12/15 00:30:57;;;;;;;46.47;24.17;;;11.30;99.90;;;;;;4936812;29;20032;-64
2021/12/15 00:33:22;;;;;;;42.88;23.17;;;11.30;99.90;;;;;;4934275;29;20024;-62
2021/12/15 00:35:48;;;;;;;41.08;23.23;;;11.20;99.90;;;;;;4936524;29;20043;-62
2021/12/15 00:38:14;;;;;;;40.83;23.25;;;11.20;99.90;;;;;;4935074;29;20132;-62
2021/12/15 00:40:40;;;;;;;40.85;21.75;;;11.20;99.90;;;;;;4936445;29;20039;-62
2021/12/15 00:43:06;;;;;;;39.50;21.98;;;11.20;99.90;;;;;;4934938;29;20038;-62
2021/12/15 00:45:32;;;;;;;40.40;22.67;;;11.20;99.90;;;;;;4935086;29;20060;-63
2021/12/15 00:47:58;;;;;;;42.65;21.65;;;11.20;99.90;;;;;;4930970;29;20055;-64
2021/12/15 00:50:29;;;;;;;38.63;21.75;;;11.20;99.90;;;;;;4931429;29;20775;-63
2021/12/15 00:52:55;;;;;;;41.35;21.13;;;11.30;99.90;;;;;;4930647;29;20139;-63
2021/12/15 00:55:24;;;;;;;39.60;21.15;;;11.30;99.90;;;;;;4930102;29;20024;-63
2021/12/15 00:57:50;;;;;;;38.22;21.13;;;11.30;99.90;;;;;;4930550;29;20031;-63
2021/12/15 01:00:20;;;;;;;36.92;21.45;;;11.20;99.90;;;;;;4930358;29;20047;-64
2021/12/15 01:02:48;;;;;;;35.85;20.20;;;11.30;99.90;;;;;;4935732;29;20518;-63
2021/12/15 01:05:15;;;;;;;40.35;20.70;;;11.20;99.90;;;;;;4930082;29;20043;-63
2021/12/15 01:07:42;;;;;;;36.95;19.92;;;11.20;99.90;;;;;;4931662;29;20071;-63
2021/12/15 01:10:10;;;;;;;39.92;21.83;;;11.20;99.90;;;;;;4929608;29;20027;-63
2021/12/15 01:20:57;;;;;;;40.23;22.13;;;11.20;99.90;;;;;;4934874;29;20089;-63
2021/12/15 01:23:27;;;;;;;39.17;20.67;;;11.20;99.90;;;;;;4934997;29;20476;-63
2021/12/15 01:25:57;;;;;;;42.22;21.98;;;11.20;99.90;;;;;;4935582;29;20038;-63
2021/12/15 01:28:24;;;;;;;41.30;21.65;;;11.20;99.90;;;;;;4934554;29;20023;-63
2021/12/15 01:30:53;;;;;;;35.67;20.02;;;11.20;99.90;;;;;;4935558;29;20122;-63
2021/12/15 01:33:20;;;;;;;40.50;20.60;;;11.20;99.90;;;;;;4932192;29;20031;-64
2021/12/15 01:35:49;;;;;;;39.05;20.70;;;11.20;99.90;;;;;;4935634;29;20032;-64
2021/12/15 01:38:16;;;;;;;38.47;21.63;;;11.20;99.90;;;;;;4934563;29;20408;-64
2021/12/15 01:40:44;;;;;;;39.47;21.65;;;11.20;99.90;;;;;;4935025;29;20377;-63
2021/12/15 01:43:21;;;;;;;39.55;21.17;;;11.20;99.90;;;;;;4940462;29;20070;-64
2021/12/15 01:48:37;;;;;;;42.80;22.05;;;11.20;99.90;;;;;;4943878;29;20056;-64
2021/12/15 01:51:05;;;;;;;39.75;22.17;;;11.20;99.90;;;;;;4945215;29;20047;-64
2021/12/15 01:53:31;;;;;;;40.67;22.13;;;11.20;99.90;;;;;;4943228;29;20063;-64
2021/12/15 01:55:57;;;;;;;40.05;20.88;;;11.20;99.90;;;;;;4945871;29;20050;-64
2021/12/15 01:58:23;;;;;;;40.85;20.58;;;11.20;99.90;;;;;;4948328;29;20110;-64
2021/12/15 02:00:53;;;;;;;39.28;20.63;;;11.20;99.90;;;;;;4941805;29;20642;-64
2021/12/15 02:03:19;;;;;;;36.95;20.92;;;11.20;99.90;;;;;;4940372;28;20131;-64
2021/12/15 02:05:46;;;;;;;40.58;21.08;;;11.20;99.90;;;;;;4945353;28;20467;-64
2021/12/15 02:08:13;;;;;;;36.55;19.88;;;11.20;99.90;;;;;;4935226;29;20043;-64
2021/12/15 02:10:40;;;;;;;38.28;21.00;;;11.20;99.90;;;;;;4916765;29;20032;-64
2021/12/15 02:13:08;;;;;;;35.63;20.95;;;11.20;99.90;;;;;;4929207;29;20403;-63
2021/12/15 02:15:41;;;;;;;36.22;21.08;;;11.20;99.90;;;;;;4935012;29;20063;-63
2021/12/15 02:18:11;;;;;;;38.70;20.23;;;11.20;99.90;;;;;;4932714;29;20075;-64
2021/12/15 02:20:58;;;;;;;40.28;19.67;;;11.20;99.90;;;;;;4934421;29;20034;-64
2021/12/15 02:23:33;;;;;;;35.28;18.85;;;11.20;99.90;;;;;;4933198;29;20039;-63
2021/12/15 02:26:00;;;;;;;;;;;11.20;99.90;;;;;;4935457;29;20113;-63
2021/12/15 02:28:26;;;;;;;32.92;18.08;;;11.20;99.90;;;;;;4948643;28;20013;-64
2021/12/15 02:38:40;;;;;;;38.47;20.48;;;11.20;99.90;;;;;;4934152;29;20046;-63
2021/12/15 02:41:19;;;;;;;35.67;19.27;;;11.20;99.90;;;;;;4948786;29;20087;-63
2021/12/15 02:43:48;;;;;;;35.50;18.55;;;11.20;99.90;;;;;;4932594;29;20036;-63
2021/12/15 02:46:14;;;;;;;36.00;20.00;;;11.20;99.90;;;;;;4934589;29;20035;-63
2021/12/15 02:48:40;;;;;;;35.92;19.42;;;11.20;99.90;;;;;;4934042;29;20153;-63
2021/12/15 02:51:06;;;;;;;35.13;18.83;;;11.20;99.90;;;;;;4948665;29;20039;-63
2021/12/15 02:53:32;;;;;;;33.53;18.83;;;11.20;99.90;;;;;;4932800;29;20046;-63
2021/12/15 02:55:57;;;;;;;33.70;18.92;;;11.20;99.90;;;;;;4934584;29;20028;-63
2021/12/15 02:58:23;;;;;;;33.05;17.67;;;11.20;99.90;;;;;;4933652;29;20115;-63
2021/12/15 03:01:05;;;;;;;33.35;17.88;;;11.20;99.90;;;;;;4948899;29;20107;-63
2021/12/15 03:06:25;;;;;;;29.80;16.42;;;11.20;99.90;;;;;;4934228;29;20119;-63
2021/12/15 03:09:26;;;;;;;34.88;17.63;;;11.20;99.90;;;;;;4933038;29;20034;-63
2021/12/15 03:17:08;;;;;;;36.90;19.45;;;11.20;99.90;;;;;;4928056;29;20031;-64
2021/12/15 03:19:35;;;;;;;32.95;18.70;;;11.20;99.90;;;;;;4932462;29;20043;-64
2021/12/15 03:22:01;;;;;;;31.98;17.25;;;11.20;99.90;;;;;;4932644;29;20032;-64
2021/12/15 03:24:27;;;;;;;31.70;18.25;;;11.20;99.90;;;;;;4931941;29;20023;-63
2021/12/15 03:27:14;;;;;;;31.58;17.52;;;11.20;99.90;;;;;;4932120;29;20404;-63
2021/12/15 03:37:42;;;;;;;31.75;17.33;;;11.20;99.90;;;;;;4931893;29;20043;-63
2021/12/15 03:40:08;;;;;;;35.13;18.50;;;11.20;99.90;;;;;;4931765;29;20028;-63
2021/12/15 03:42:43;;;;;;;33.70;19.48;;;11.20;99.90;;;;;;4932188;28;20046;-63
2021/12/15 03:45:13;;;;;;;30.65;17.08;;;11.20;99.90;;;;;;4932274;29;20027;-63
2021/12/15 03:47:45;;;;;;;31.60;16.77;;;11.20;99.90;;;;;;4935211;29;20050;-63
2021/12/15 03:50:14;;;;;;;31.73;17.33;;;11.20;99.90;;;;;;4937699;29;20384;-63
2021/12/15 03:52:41;;;;;;;30.40;17.45;;;11.20;99.90;;;;;;4935978;29;20162;-63
2021/12/15 03:55:09;;;;;;;32.70;18.42;;;11.20;99.90;;;;;;4936906;29;20456;-63
2021/12/15 03:57:35;;;;;;;31.67;17.35;;;11.20;99.90;;;;;;4936604;29;20036;-63
2021/12/15 04:00:03;;;;;;;27.30;16.67;;;11.20;99.90;;;;;;4936697;29;20035;-63
2021/12/15 04:02:29;;;;;;;28.55;16.30;;;11.20;99.90;;;;;;4936591;29;20044;-63
2021/12/15 04:04:54;;;;;;;28.40;17.13;;;11.30;99.90;;;;;;4935416;29;20023;-63
2021/12/15 04:07:21;;;;;;;31.45;17.27;;;11.20;99.90;;;;;;4936877;29;20034;-63
2021/12/15 04:09:49;;;;;;;28.15;15.52;;;11.30;99.90;;;;;;4937049;29;20495;-63
2021/12/15 04:12:15;;;;;;;28.73;17.00;;;11.20;99.90;;;;;;4936375;29;20035;-63
2021/12/15 04:14:44;;;;;;;30.45;16.30;;;11.30;99.90;;;;;;4937021;29;20028;-63
2021/12/15 04:17:34;;;;;;;31.42;17.38;;;11.30;99.90;;;;;;4936691;29;20428;-63
2021/12/15 04:20:05;;;;;;;30.65;16.65;;;11.20;99.90;;;;;;4936665;29;20535;-63
2021/12/15 04:22:31;;;;;;;29.98;16.58;;;11.20;99.90;;;;;;4936650;29;20051;-62
2021/12/15 04:24:58;;;;;;;27.70;15.55;;;11.30;99.90;;;;;;4936283;29;20361;-63
2021/12/15 04:27:26;;;;;;;30.48;17.02;;;11.30;99.90;;;;;;4935338;29;20577;-63
2021/12/15 04:29:53;;;;;;;28.50;15.07;;;11.30;99.90;;;;;;4936074;29;20122;-63
2021/12/15 04:32:43;;;;;;;29.45;17.02;;;11.20;99.90;;;;;;4935535;29;20039;-63
2021/12/15 04:35:10;;;;;;;28.30;16.02;;;11.30;99.90;;;;;;4936864;29;20387;-64
2021/12/15 04:37:36;;;;;;;28.45;16.40;;;11.30;99.90;;;;;;4935782;29;20083;-64
2021/12/15 04:40:06;;;;;;;27.20;15.93;;;11.20;99.90;;;;;;4935098;29;20024;-63
2021/12/15 04:42:32;;;;;;;26.17;15.48;;;11.30;99.90;;;;;;4934760;29;20044;-64
2021/12/15 04:45:00;;;;;;;26.23;15.88;;;11.30;99.90;;;;;;4936663;29;20391;-64
2021/12/15 04:47:26;;;;;;;28.08;15.50;;;11.30;99.90;;;;;;4935554;29;20541;-64
2021/12/15 04:49:54;;;;;;;26.50;15.63;;;11.30;99.90;;;;;;4935806;29;20499;-64
2021/12/15 04:52:23;;;;;;;24.92;14.93;;;11.30;99.90;;;;;;4934634;28;20098;-64
2021/12/15 04:54:50;;;;;;;24.83;14.48;;;11.30;99.90;;;;;;4935614;29;20534;-64
2021/12/15 04:57:17;;;;;;;25.13;14.85;;;11.30;99.90;;;;;;4935012;29;20035;-62
2021/12/15 04:59:44;;;;;;;26.52;14.60;;;11.30;99.90;;;;;;4935183;29;20019;-62
2021/12/15 05:02:13;;;;;;;25.73;14.90;;;11.30;99.90;;;;;;4935423;29;20043;-63
2021/12/15 05:04:39;;;;;;;27.27;15.93;;;11.30;99.90;;;;;;4934948;29;20038;-63
2021/12/15 05:07:05;;;;;;;26.23;15.10;;;11.30;99.90;;;;;;4935547;29;20027;-63
2021/12/15 05:09:31;;;;;;;23.98;14.73;;;11.30;99.90;;;;;;4935303;29;20115;-63
2021/12/15 05:11:57;;;;;;;25.73;14.93;;;11.30;99.90;;;;;;4934992;29;20107;-63
2021/12/15 05:14:23;;;;;;;25.85;15.10;;;11.30;99.90;;;;;;4935147;29;20859;-63
2021/12/15 05:16:51;;;;;;;26.92;14.20;;;11.30;99.90;;;;;;4935300;29;20024;-63
2021/12/15 05:19:18;;;;;;;24.80;15.25;;;11.30;99.90;;;;;;4934640;29;20126;-63
2021/12/15 05:21:44;;;;;;;22.92;14.50;;;11.30;99.90;;;;;;4934898;29;20504;-63
2021/12/15 05:24:23;;;;;;;23.98;14.57;;;11.30;99.90;;;;;;4935401;29;20107;-63
2021/12/15 05:26:49;;;;;;;25.80;13.65;;;11.30;99.90;;;;;;4934952;29;20384;-63
2021/12/15 05:29:15;;;;;;;25.52;15.65;;;11.30;99.90;;;;;;4934473;29;20114;-63
2021/12/15 05:31:41;;;;;;;25.75;14.32;;;11.30;99.90;;;;;;4934817;29;20553;-63
2021/12/15 05:34:07;;;;;;;26.13;15.63;;;11.30;99.90;;;;;;4935598;29;20039;-64
2021/12/15 05:36:32;;;;;;;24.55;15.40;;;11.30;99.90;;;;;;4934486;29;20470;-64
2021/12/15 05:38:58;;;;;;;25.85;14.00;;;11.30;99.90;;;;;;4935060;29;20031;-64
2021/12/15 05:41:24;;;;;;;25.88;14.18;;;11.20;99.90;;;;;;4934973;29;20482;-63
2021/12/15 05:43:50;;;;;;;26.17;14.75;;;11.20;99.90;;;;;;4933936;29;20127;-64
2021/12/15 05:46:16;;;;;;;24.65;14.27;;;11.30;99.90;;;;;;4933254;29;20111;-64
2021/12/15 05:48:42;;;;;;;26.42;15.48;;;11.30;99.90;;;;;;4929138;29;20114;-64
2021/12/15 05:51:07;;;;;;;28.88;14.85;;;11.30;99.90;;;;;;4928927;29;20505;-64
2021/12/15 05:53:34;;;;;;;23.80;14.45;;;11.30;99.90;;;;;;4930024;29;20130;-64
2021/12/15 05:55:59;;;;;;;24.50;14.73;;;11.30;99.90;;;;;;4930335;29;20052;-64
2021/12/15 05:58:25;;;;;;;30.05;15.75;;;11.30;99.90;;;;;;4932468;29;20384;-64
2021/12/15 06:00:51;;;;;;;26.00;15.98;;;11.30;99.90;;;;;;4934172;29;20047;-63
2021/12/15 06:03:17;;;;;;;29.20;15.85;;;11.30;99.90;;;;;;4932782;29;20090;-63
2021/12/15 06:05:43;;;;;;;27.33;16.08;;;11.30;99.90;;;;;;4934635;29;20084;-63
2021/12/15 06:08:09;;;;;;;24.55;13.70;;;11.30;99.90;;;;;;4932567;29;20114;-64
2021/12/15 06:10:36;;;;;;;26.10;15.18;;;11.30;99.90;;;;;;4934988;29;20114;-65
2021/12/15 06:13:05;;;;;;;28.73;16.20;;;11.30;99.90;;;;;;4933404;29;20032;-64
2021/12/15 06:15:31;;;;;;;27.98;15.20;;;11.30;99.90;;;;;;4934322;29;20087;-64
2021/12/15 06:18:07;;;;;;;29.08;15.77;;;11.30;99.90;;;;;;4933991;29;20547;-63
2021/12/15 06:20:33;;;;;;;28.75;17.35;;;11.30;99.90;;;;;;4933888;29;20479;-63
2021/12/15 06:23:01;;;;;;;27.80;15.90;;;11.30;99.90;;;;;;4933775;29;20040;-62
2021/12/15 06:25:28;;;;;;;28.63;15.80;;;11.30;99.90;;;;;;4934701;29;20024;-62
2021/12/15 06:27:54;;;;;;;24.98;14.82;;;11.30;99.90;;;;;;4933327;29;20110;-62
2021/12/15 06:30:19;;;;;;;24.50;14.98;;;11.30;99.90;;;;;;4934473;29;20031;-63
2021/12/15 06:32:45;;;;;;;24.45;14.93;;;11.30;99.90;;;;;;4932709;29;20361;-63
2021/12/15 06:35:11;;;;;;;26.02;15.23;;;11.30;99.90;;;;;;4934573;29;20118;-63
2021/12/15 06:37:37;;;;;;;27.27;14.90;;;11.30;99.90;;;;;;4933603;29;20039;-64
2021/12/15 06:40:07;;;;;;;26.60;14.93;;;11.30;99.90;;;;;;4934887;29;20027;-63
2021/12/15 06:42:35;;;;;;;26.10;15.05;;;11.30;99.90;;;;;;4933421;29;20044;-63
2021/12/15 06:45:01;;;;;;;24.55;13.93;;;11.30;99.90;;;;;;4934313;29;20030;-63
2021/12/15 06:58:24;;;;;;;24.73;15.07;;;11.30;99.90;;;;;;4929579;29;20027;-63
2021/12/15 07:00:57;;;;;;;23.00;14.65;;;11.20;99.90;;;;;;4933606;29;20043;-63
2021/12/15 07:03:23;;;;;;;23.80;13.93;;;11.20;99.90;;;;;;4931833;28;20040;-63
2021/12/15 07:05:50;;;;;;;26.98;14.70;;;11.20;99.90;;;;;;4933015;29;20304;-62
2021/12/15 07:08:17;;;;;;;23.55;13.38;;;11.20;99.90;;;;;;4931612;29;20491;-62
2021/12/15 07:10:46;;;;;;;22.27;13.73;;;11.20;99.90;;;;;;4931921;29;20468;-62
2021/12/15 07:13:12;;;;;;;21.10;13.15;;;11.30;99.90;;;;;;4922188;29;20028;-62
2021/12/15 07:15:38;;;;;;;24.23;13.23;;;11.20;99.90;;;;;;4938082;29;20075;-62
2021/12/15 07:18:09;;;;;;;21.95;13.05;;;11.20;99.90;;;;;;4932179;28;20039;-60
2021/12/15 07:20:40;;;;;;;25.52;14.32;;;11.20;99.90;;;;;;4931918;29;20036;-60
2021/12/15 07:23:09;;;;;;;21.23;13.60;;;11.20;99.90;;;;;;4931477;29;20046;-61
2021/12/15 07:25:37;;;;;;;24.23;14.63;;;11.20;99.90;;;;;;4931273;29;20035;-61
2021/12/15 07:28:05;;;;;;;23.27;13.85;;;11.20;99.90;;;;;;4927885;29;20042;-61
2021/12/15 07:30:32;;;;;;;22.50;12.77;;;11.20;99.90;;;;;;4926006;29;20028;-61
2021/12/15 07:32:58;;;;;;;21.58;13.00;;;11.20;99.90;;;;;;4930966;29;20023;-61
2021/12/15 07:35:25;;;;;;;22.02;12.50;;;11.20;99.90;;;;;;4931663;29;20028;-62
2021/12/15 07:37:51;;;;;;;23.05;13.48;;;11.20;99.90;;;;;;4931777;29;20079;-61
2021/12/15 07:40:21;;;;;;;23.80;12.93;;;11.20;99.90;;;;;;4931287;29;20032;-61
2021/12/15 07:43:24;;;;;;;20.48;13.30;;;11.30;99.90;;;;;;4931918;29;20054;-61
2021/12/15 07:45:50;;;;;;;23.05;13.13;;;11.30;99.90;;;;;;4928132;29;20035;-62
2021/12/15 07:48:17;;;;;;;;;;;11.30;99.90;;;;;;4931555;29;20038;-62
2021/12/15 07:50:46;;;;;;;19.63;12.63;;;11.30;99.90;;;;;;4932545;29;19911;-62
2021/12/15 07:53:14;;;;;;;21.02;12.73;;;11.30;99.90;;;;;;4930782;29;20047;-62
2021/12/15 07:55:40;;;;;;;20.77;13.00;;;11.30;99.90;;;;;;4930430;29;20376;-62
2021/12/15 07:58:08;;;;;;;23.08;13.15;;;11.30;99.90;;;;;;4930548;29;20036;-62
2021/12/15 08:00:36;;;;;;;23.27;12.20;;;11.30;99.90;;;;;;4931388;29;20097;-61
2021/12/15 08:03:02;;;;;;;22.45;12.65;;;11.30;99.90;;;;;;4934657;29;20095;-61
2021/12/15 08:05:29;;;;;;;22.83;13.20;;;11.30;99.90;;;;;;4950086;28;20102;-62
2021/12/15 08:07:55;;;;;;;21.23;13.07;;;11.40;99.90;;;;;;4935598;29;20032;-61
2021/12/15 08:10:21;;;;;;;21.88;12.70;;;11.40;99.90;;;;;;4935599;29;20035;-62
2021/12/15 08:12:47;;;;;;;21.77;12.85;;;11.40;99.90;;;;;;4935059;29;20519;-61
2021/12/15 08:15:14;;;;;;;20.48;12.20;;;11.40;99.90;;;;;;4936372;29;20019;-61
2021/12/15 08:17:41;;;;;;;22.27;12.50;;;11.40;99.90;;;;;;4936044;29;20356;-61
2021/12/15 08:20:11;;;;;;;20.48;12.43;;;11.40;99.90;;;;;;4948810;28;20058;-62
2021/12/15 08:22:38;;;;;;;22.77;12.13;;;11.40;99.90;;;;;;4936534;29;20037;-62
2021/12/15 08:25:08;;;;;;;18.50;11.60;;;11.40;99.90;;;;;;4935167;29;20020;-65
2021/12/15 08:27:34;;;;;;;20.02;11.60;;;11.40;99.90;;;;;;4931856;29;20463;-66
2021/12/15 08:30:00;;;;;;;20.83;12.73;;;11.40;99.90;;;;;;4929919;29;20506;-66
2021/12/15 08:32:25;;;;;;;20.25;12.27;;;11.50;99.90;;;;;;4935584;29;20056;-66
2021/12/15 08:34:51;;;;;;;21.30;12.93;;;11.50;99.90;;;;;;4923073;29;20146;-66
2021/12/15 08:37:17;;;;;;;21.15;11.82;;;11.50;99.90;;;;;;4931638;29;20031;-65
2021/12/15 08:39:45;;;;;;;21.20;11.32;;;11.60;99.90;;;;;;4935728;29;20036;-66
2021/12/15 08:42:12;;;;;;;19.70;11.70;;;11.60;99.90;;;;;;4936065;29;20162;-65
2021/12/15 08:44:38;;;;;;;18.13;11.00;;;11.60;99.90;;;;;;4935684;29;20079;-65
2021/12/15 08:47:06;;;;;;;18.55;12.68;;;11.60;99.90;;;;;;4935575;29;20036;-64
2021/12/15 08:49:32;;;;;;;20.90;12.55;;;11.70;99.90;;;;;;4935611;29;20091;-65
2021/12/15 08:51:58;;;;;;;18.65;11.50;;;11.70;99.90;;;;;;4933703;29;20047;-65
2021/12/15 08:54:24;;;;;;;18.30;11.82;;;11.70;99.90;;;;;;4934920;29;20107;-66
2021/12/15 08:56:51;;;;;;;17.38;10.75;;;11.70;99.90;;;;;;4930112;29;20496;-66
2021/12/15 08:59:18;;;;;;;20.02;12.55;;;11.70;99.90;;;;;;4930708;29;20108;-66
2021/12/15 09:01:45;;;;;;;19.65;12.32;;;11.70;99.90;;;;;;4934110;29;20065;-65
2021/12/15 09:04:12;;;;;;;19.50;12.50;;;11.70;99.90;;;;;;4933372;29;20527;-66
2021/12/15 09:06:39;;;;;;;21.73;13.27;;;11.70;99.90;;;;;;4933526;29;20032;-65
2021/12/15 09:09:08;;;;;;;19.83;13.57;;;11.70;99.90;;;;;;4934264;29;20294;-65
2021/12/15 09:11:35;;;;;;;21.80;13.70;;;11.70;99.90;;;;;;4934087;29;20039;-64
2021/12/15 09:14:02;;;;;;;19.55;13.00;;;11.70;99.90;;;;;;4934029;29;20032;-65
2021/12/15 09:16:32;;;;;;;22.02;14.43;;;11.70;99.90;;;;;;4930086;29;20050;-64
2021/12/15 09:18:59;;;;;;;21.63;13.40;;;11.80;99.90;;;;;;4930907;29;20486;-64
2021/12/15 09:21:27;;;;;;;18.80;12.40;;;11.80;99.90;;;;;;4932993;29;20043;-64
2021/12/15 09:23:54;;;;;;;20.10;12.70;;;11.80;99.90;;;;;;4933219;29;20065;-63
2021/12/15 09:26:20;;;;;;;21.73;13.00;;;11.80;99.90;;;;;;4934250;29;20055;-65
2021/12/15 09:28:47;;;;;;;20.45;12.98;;;11.80;99.90;;;;;;4932385;29;20035;-65
2021/12/15 09:31:14;;;;;;;20.30;12.50;;;11.80;99.90;;;;;;4932814;29;20105;-65
2021/12/15 09:33:56;;;;;;;17.52;11.77;;;11.90;99.90;;;;;;4933898;29;20043;-64
2021/12/15 09:36:23;;;;;;;19.27;13.65;;;11.90;99.90;;;;;;4935044;29;20035;-65
2021/12/15 09:38:53;;;;;;;20.20;12.95;;;11.90;99.90;;;;;;4933671;29;20036;-65
2021/12/15 09:41:20;;;;;;;18.60;12.02;;;11.90;99.80;;;;;;4934678;29;20062;-64
2021/12/15 09:43:49;;;;;;;21.98;13.05;;;11.90;99.90;;;;;;4931872;29;20503;-65
2021/12/15 09:46:35;;;;;;;18.70;12.55;;;11.90;99.80;;;;;;4933987;29;20060;-65
2021/12/15 10:02:47;;;;;;;19.67;12.20;;;12.00;99.80;;;;;;4933390;29;20040;-66
2021/12/15 10:05:29;;;;;;;19.90;11.48;;;12.00;99.80;;;;;;4932603;29;20034;-65
2021/12/15 10:19:26;;;;;;;19.83;13.23;;;12.00;99.80;;;;;;4923151;29;20087;-65
2021/12/15 10:22:11;;;;;;;22.90;12.98;;;12.00;99.80;;;;;;4929177;29;20106;-65
2021/12/15 10:24:53;;;;;;;21.15;11.90;;;12.00;99.80;;;;;;4933784;29;20028;-66
2021/12/15 10:27:35;;;;;;;21.23;12.70;;;12.10;99.80;;;;;;4932923;29;20031;-65
2021/12/15 10:30:08;;;;;;;20.70;12.45;;;12.10;99.80;;;;;;4934350;29;20031;-66
2021/12/15 10:32:37;;;;;;;20.23;12.75;;;12.10;99.70;;;;;;4933392;29;20035;-66
2021/12/15 10:35:08;;;;;;;20.40;12.68;;;12.10;99.70;;;;;;4934521;29;20042;-66
2021/12/15 10:37:35;;;;;;;16.90;10.93;;;12.10;99.70;;;;;;4933529;29;20055;-66
2021/12/15 10:40:15;;;;;;;17.00;12.10;;;12.20;99.70;;;;;;4934143;29;20024;-66
2021/12/15 10:42:41;;;;;;;18.65;12.02;;;12.20;99.70;;;;;;4944238;28;20110;-66
2021/12/15 10:45:11;;;;;;;19.10;12.10;;;12.20;99.60;;;;;;4927900;29;20555;-66
2021/12/15 10:47:42;;;;;;;18.70;12.75;;;12.20;99.60;;;;;;4933471;29;20175;-66
2021/12/15 10:50:13;;;;;;;17.40;10.70;;;12.20;99.60;;;;;;4934327;29;20110;-65
2021/12/15 10:53:00;;;;;;;18.67;11.75;;;12.20;99.60;;;;;;4933121;29;20052;-64
2021/12/15 10:55:35;;;;;;;18.08;11.00;;;12.20;99.50;;;;;;4933882;29;20032;-65
2021/12/15 10:58:22;;;;;;;18.83;11.43;;;12.20;99.50;;;;;;4937831;29;20427;-65
2021/12/15 11:00:47;;;;;;;18.40;11.95;;;12.10;99.50;;;;;;4953516;28;20020;-65
2021/12/15 11:03:16;;;;;;;18.15;10.88;;;12.10;99.50;;;;;;4938313;28;20047;-66
2021/12/15 11:05:43;;;;;;;17.08;11.23;;;12.10;99.50;;;;;;4933693;29;20401;-66
2021/12/15 11:08:08;;;;;;;17.75;11.50;;;12.10;99.50;;;;;;4933360;28;20036;-66
2021/12/15 11:10:37;;;;;;;16.50;10.32;;;12.10;99.50;;;;;;4931934;29;20106;-67
2021/12/15 11:13:10;;;;;;;18.85;11.45;;;12.10;99.50;;;;;;4933405;29;20025;-66
2021/12/15 11:15:41;;;;;;;17.35;11.23;;;12.10;99.60;;;;;;4933790;29;20042;-66
2021/12/15 11:18:10;;;;;;;18.50;10.88;;;12.10;99.50;;;;;;4933583;29;20452;-66
2021/12/15 11:20:42;;;;;;;17.58;10.60;;;12.10;99.60;;;;;;4932494;29;20040;-66
2021/12/15 11:23:13;;;;;;;16.83;10.70;;;12.20;99.60;;;;;;4933403;29;20376;-66
2021/12/15 11:25:45;;;;;;;19.77;10.18;;;12.10;99.60;;;;;;4933595;29;20024;-66
2021/12/15 11:28:27;;;;;;;17.77;11.30;;;12.10;99.60;;;;;;4932582;29;20404;-65
2021/12/15 11:31:07;;;;;;;16.08;10.57;;;12.20;99.60;;;;;;4923531;29;20042;-65
2021/12/15 11:33:45;;;;;;;16.35;10.38;;;12.20;99.60;;;;;;4933438;29;20387;-65
2021/12/15 11:36:17;;;;;;;17.13;11.02;;;12.20;99.50;;;;;;4915280;29;20024;-65
2021/12/15 11:38:48;;;;;;;16.13;11.07;;;12.20;99.50;;;;;;4932448;29;20405;-65
2021/12/15 11:41:15;;;;;;;17.95;10.23;;;12.20;99.50;;;;;;4937121;29;20476;-65
2021/12/15 11:43:50;;;;;;;17.63;10.68;;;12.20;99.50;;;;;;4937063;29;20035;-66
2021/12/15 11:46:21;;;;;;;16.83;10.52;;;12.20;99.50;;;;;;4936474;29;20383;-65
2021/12/15 11:48:57;;;;;;;15.45;9.90;;;12.30;99.50;;;;;;4936330;29;20549;-65
2021/12/15 11:51:34;;;;;;;18.08;10.70;;;12.30;99.50;;;;;;4937476;29;20056;-65
2021/12/15 11:54:01;;;;;;;14.57;9.52;;;12.30;99.50;;;;;;4936370;29;20479;-65
2021/12/15 11:56:34;;;;;;;15.50;9.80;;;12.30;99.40;;;;;;4937011;29;20043;-65
2021/12/15 11:59:23;;;;;;;13.47;9.40;;;12.40;99.40;;;;;;4937461;29;20575;-66
2021/12/15 12:02:07;;;;;;;14.88;8.90;;;12.40;99.40;;;;;;4937785;29;20125;-66
2021/12/15 12:04:48;;;;;;;13.00;8.65;;;12.40;99.40;;;;;;4939900;28;20571;-66
2021/12/15 12:07:32;;;;;;;14.35;9.48;;;12.50;99.40;;;;;;4936501;29;20483;-66
2021/12/15 12:10:13;;;;;;;14.23;9.52;;;12.50;99.40;;;;;;4937645;29;20463;-66
2021/12/15 12:12:50;;;;;;;14.43;9.27;;;12.50;99.40;;;;;;4936301;29;20446;-66
2021/12/15 12:15:20;;;;;;;12.52;8.35;;;12.60;99.30;;;;;;4936940;29;20031;-66
2021/12/15 12:17:49;;;;;;;14.88;9.00;;;12.60;99.30;;;;;;4936121;29;20199;-66
2021/12/15 12:20:23;;;;;;;13.70;9.05;;;12.70;99.20;;;;;;4951867;29;20427;-66
2021/12/15 12:22:51;;;;;;;12.68;8.48;;;12.70;99.10;;;;;;4934087;29;20142;-66
2021/12/15 12:25:24;;;;;;;13.20;8.15;;;12.80;99.10;;;;;;4927353;29;20036;-66
2021/12/15 12:27:55;;;;;;;12.63;8.30;;;12.80;99.00;;;;;;4927311;29;20063;-66
2021/12/15 12:30:28;;;;;;;11.63;8.35;;;12.80;99.00;;;;;;4919418;29;20029;-66
2021/12/15 12:32:54;;;;;;;12.75;7.90;;;12.80;98.90;;;;;;4935839;29;20039;-66
2021/12/15 12:35:27;;;;;;;14.32;7.70;;;12.80;98.90;;;;;;4936171;29;20024;-65
2021/12/15 12:37:59;;;;;;;12.20;7.90;;;12.80;98.90;;;;;;4935498;29;20491;-65
2021/12/15 12:40:32;;;;;;;14.30;9.30;;;12.80;98.90;;;;;;4936780;29;20035;-66
2021/12/15 12:42:59;;;;;;;12.15;7.60;;;12.80;98.80;;;;;;4948884;29;20035;-66
2021/12/15 12:45:38;;;;;;;11.77;7.80;;;12.80;98.90;;;;;;4953898;29;20031;-65
2021/12/15 12:48:46;;;;;;;11.57;7.43;;;12.90;98.80;;;;;;4939158;28;20443;-65
2021/12/15 12:59:36;;;;;;;13.57;8.90;;;12.80;98.80;;;;;;4936472;29;20145;-65
2021/12/15 13:02:09;;;;;;;11.40;7.85;;;12.80;98.80;;;;;;4935102;29;20044;-65
2021/12/15 13:04:42;;;;;;;10.90;7.18;;;12.90;98.80;;;;;;4934173;29;20027;-65
2021/12/15 13:07:09;;;;;;;12.07;8.02;;;12.80;98.70;;;;;;4932364;28;20039;-65
2021/12/15 13:09:47;;;;;;;11.27;7.15;;;12.80;98.70;;;;;;4928705;29;20055;-65
2021/12/15 13:12:23;;;;;;;13.00;8.30;;;12.80;98.70;;;;;;4922798;29;20059;-65
2021/12/15 13:14:48;;;;;;;14.05;8.43;;;12.80;98.70;;;;;;4935362;29;20028;-65
2021/12/15 13:17:24;;;;;;;10.85;7.35;;;12.80;98.80;;;;;;4935102;29;20043;-65
2021/12/15 13:19:51;;;;;;;11.80;7.82;;;12.80;98.70;;;;;;4935692;29;20082;-66
2021/12/15 13:30:41;;;;;;;12.60;8.25;;;12.80;98.80;;;;;;4935815;29;20035;-65
2021/12/15 13:33:16;;;;;;;12.55;8.18;;;12.80;98.80;;;;;;4935392;29;20052;-65
2021/12/15 13:35:52;;;;;;;13.82;8.10;;;12.80;98.70;;;;;;4933443;29;20027;-65
2021/12/15 13:38:22;;;;;;;13.75;8.38;;;12.80;98.70;;;;;;4935304;29;20040;-65
2021/12/15 13:40:53;;;;;;;11.43;7.72;;;12.80;98.70;;;;;;4935424;29;20031;-65
2021/12/15 13:43:37;;;;;;;13.57;8.85;;;12.80;98.70;;;;;;4934629;29;20050;-65
2021/12/15 13:46:05;;;;;;;12.65;8.70;;;12.80;98.70;;;;;;4939781;28;20024;-65
2021/12/15 13:48:54;;;;;;;14.65;8.55;;;12.80;98.70;;;;;;4933184;29;20032;-65
2021/12/15 13:51:59;;;;;;;14.73;9.18;;;12.80;98.70;;;;;;4912525;29;20044;-65
2021/12/15 13:54:35;;;;;;;13.30;8.45;;;12.80;98.70;;;;;;4918641;29;20060;-66
2021/12/15 13:57:13;;;;;;;12.13;8.05;;;12.80;98.70;;;;;;4923349;29;20491;-65
2021/12/15 13:59:43;;;;;;;12.75;7.93;;;12.80;98.80;;;;;;4939205;29;20060;-66
2021/12/15 14:02:10;;;;;;;15.80;9.30;;;12.80;98.70;;;;;;4935147;29;20035;-66
2021/12/15 14:05:00;;;;;;;15.63;9.05;;;12.80;98.70;;;;;;4933278;29;20074;-66
2021/12/15 14:07:28;;;;;;;15.60;9.43;;;12.80;98.70;;;;;;4933110;29;20167;-65
2021/12/15 14:10:01;;;;;;;13.77;8.90;;;12.80;98.70;;;;;;4935532;29;20028;-64